sensor_id;sensor_type;location;lat;lon;timestamp;P1;durP1;ratioP1;P2;durP2;ratioP2
26181;SDS011;13927;51.534;11.866;2023-03-01T00:01:38;17.45;;;11.50;;
26181;SDS011;13927;51.534;11.866;2023-03-01T00:04:05;19.15;;;12.02;;
26181;SDS011;13927;51.534;11.866;2023-03-01T00:06:31;21.40;;;11.80;;
26181;SDS011;13927;51.534;11.866;2023-03-01T00:08:57;20.60;;;12.35;;
26181;SDS011;13927;51.534;11.866;2023-03-01T00:11:32;18.98;;;12.07;;
26181;SDS011;13927;51.534;11.866;2023-03-01T00:14:00;19.05;;;11.40;;
26181;SDS011;13927;51.534;11.866;2023-03-01T00:16:35;18.65;;;11.65;;
26181;SDS011;13927;51.534;11.866;2023-03-01T00:19:04;18.63;;;11.35;;
26181;SDS011;13927;51.534;11.866;2023-03-01T00:21:31;19.23;;;11.55;;
26181;SDS011;13927;51.534;11.866;2023-03-01T00:23:58;19.05;;;12.13;;
26181;SDS011;13927;51.534;11.866;2023-03-01T00:26:24;19.52;;;12.02;;
26181;SDS011;13927;51.534;11.866;2023-03-01T00:28:51;18.27;;;11.82;;
26181;SDS011;13927;51.534;11.866;2023-03-01T00:31:18;21.83;;;12.52;;
26181;SDS011;13927;51.534;11.866;2023-03-01T00:33:47;21.23;;;13.23;;
26181;SDS011;13927;51.534;11.866;2023-03-01T00:36:13;19.08;;;12.50;;
26181;SDS011;13927;51.534;11.866;2023-03-01T00:38:42;23.92;;;15.00;;
26181;SDS011;13927;51.534;11.866;2023-03-01T00:41:11;24.88;;;14.10;;
26181;SDS011;13927;51.534;11.866;2023-03-01T00:43:40;20.73;;;13.68;;
26181;SDS011;13927;51.534;11.866;2023-03-01T00:46:07;20.92;;;12.02;;
26181;SDS011;13927;51.534;11.866;2023-03-01T00:48:42;20.48;;;13.35;;
26181;SDS011;13927;51.534;11.866;2023-03-01T00:51:11;17.95;;;11.32;;
26181;SDS011;13927;51.534;11.866;2023-03-01T00:53:47;20.25;;;12.50;;
26181;SDS011;13927;51.534;11.866;2023-03-01T00:56:16;21.48;;;13.50;;
26181;SDS011;13927;51.534;11.866;2023-03-01T00:58:42;20.83;;;13.02;;
26181;SDS011;13927;51.534;11.866;2023-03-01T01:01:09;19.08;;;12.68;;
26181;SDS011;13927;51.534;11.866;2023-03-01T01:04:01;20.00;;;11.90;;
26181;SDS011;13927;51.534;11.866;2023-03-01T01:06:33;21.90;;;13.93;;
26181;SDS011;13927;51.534;11.866;2023-03-01T01:09:05;21.27;;;12.75;;
26181;SDS011;13927;51.534;11.866;2023-03-01T01:11:32;20.35;;;13.52;;
26181;SDS011;13927;51.534;11.866;2023-03-01T01:14:00;22.60;;;13.45;;
26181;SDS011;13927;51.534;11.866;2023-03-01T01:16:26;22.13;;;13.40;;
26181;SDS011;13927;51.534;11.866;2023-03-01T01:18:53;20.73;;;13.55;;
26181;SDS011;13927;51.534;11.866;2023-03-01T01:21:21;23.83;;;15.75;;
26181;SDS011;13927;51.534;11.866;2023-03-01T01:23:48;23.10;;;13.50;;
26181;SDS011;13927;51.534;11.866;2023-03-01T01:28:43;21.42;;;14.02;;
26181;SDS011;13927;51.534;11.866;2023-03-01T01:31:11;23.08;;;13.30;;
26181;SDS011;13927;51.534;11.866;2023-03-01T01:33:38;20.50;;;12.73;;
26181;SDS011;13927;51.534;11.866;2023-03-01T01:36:04;21.98;;;12.50;;
26181;SDS011;13927;51.534;11.866;2023-03-01T01:38:31;19.45;;;12.30;;
26181;SDS011;13927;51.534;11.866;2023-03-01T01:40:57;19.42;;;12.50;;
26181;SDS011;13927;51.534;11.866;2023-03-01T01:43:24;23.00;;;13.65;;
26181;SDS011;13927;51.534;11.866;2023-03-01T01:46:04;23.30;;;14.20;;
26181;SDS011;13927;51.534;11.866;2023-03-01T01:48:57;26.23;;;14.30;;
26181;SDS011;13927;51.534;11.866;2023-03-01T01:51:29;24.55;;;14.02;;
26181;SDS011;13927;51.534;11.866;2023-03-01T01:54:06;20.75;;;13.13;;
26181;SDS011;13927;51.534;11.866;2023-03-01T01:56:37;23.08;;;13.23;;
26181;SDS011;13927;51.534;11.866;2023-03-01T01:59:08;23.63;;;13.57;;
26181;SDS011;13927;51.534;11.866;2023-03-01T02:01:34;21.40;;;13.80;;
26181;SDS011;13927;51.534;11.866;2023-03-01T02:04:00;20.67;;;12.82;;
26181;SDS011;13927;51.534;11.866;2023-03-01T02:06:27;23.83;;;13.50;;
26181;SDS011;13927;51.534;11.866;2023-03-01T02:09:07;20.92;;;12.85;;
26181;SDS011;13927;51.534;11.866;2023-03-01T02:11:39;20.55;;;13.13;;
26181;SDS011;13927;51.534;11.866;2023-03-01T02:14:06;21.77;;;13.13;;
26181;SDS011;13927;51.534;11.866;2023-03-01T02:16:32;19.15;;;12.93;;
26181;SDS011;13927;51.534;11.866;2023-03-01T02:18:58;18.13;;;11.90;;
26181;SDS011;13927;51.534;11.866;2023-03-01T02:27:23;19.80;;;12.43;;
26181;SDS011;13927;51.534;11.866;2023-03-01T02:30:24;22.80;;;13.73;;
26181;SDS011;13927;51.534;11.866;2023-03-01T02:32:53;22.85;;;13.35;;
26181;SDS011;13927;51.534;11.866;2023-03-01T02:35:38;21.65;;;14.05;;
26181;SDS011;13927;51.534;11.866;2023-03-01T02:38:06;24.60;;;14.88;;
26181;SDS011;13927;51.534;11.866;2023-03-01T02:40:34;23.05;;;14.13;;
26181;SDS011;13927;51.534;11.866;2023-03-01T02:43:02;22.70;;;14.35;;
26181;SDS011;13927;51.534;11.866;2023-03-01T02:45:33;19.40;;;13.05;;
26181;SDS011;13927;51.534;11.866;2023-03-01T02:47:58;24.13;;;14.30;;
26181;SDS011;13927;51.534;11.866;2023-03-01T02:50:44;22.20;;;12.85;;
26181;SDS011;13927;51.534;11.866;2023-03-01T02:54:02;24.83;;;12.88;;
26181;SDS011;13927;51.534;11.866;2023-03-01T02:56:40;21.58;;;13.02;;
26181;SDS011;13927;51.534;11.866;2023-03-01T02:59:07;21.38;;;13.88;;
26181;SDS011;13927;51.534;11.866;2023-03-01T03:01:34;25.08;;;14.00;;
26181;SDS011;13927;51.534;11.866;2023-03-01T03:04:09;21.35;;;13.10;;
26181;SDS011;13927;51.534;11.866;2023-03-01T03:06:42;21.30;;;12.38;;
26181;SDS011;13927;51.534;11.866;2023-03-01T03:09:10;22.98;;;14.02;;
26181;SDS011;13927;51.534;11.866;2023-03-01T03:11:37;20.83;;;13.07;;
26181;SDS011;13927;51.534;11.866;2023-03-01T03:14:05;20.73;;;13.35;;
26181;SDS011;13927;51.534;11.866;2023-03-01T03:16:38;20.70;;;13.18;;
26181;SDS011;13927;51.534;11.866;2023-03-01T03:19:09;19.20;;;12.27;;
26181;SDS011;13927;51.534;11.866;2023-03-01T03:21:37;21.27;;;12.43;;
26181;SDS011;13927;51.534;11.866;2023-03-01T03:24:03;19.70;;;12.30;;
26181;SDS011;13927;51.534;11.866;2023-03-01T03:26:29;18.90;;;12.02;;
26181;SDS011;13927;51.534;11.866;2023-03-01T03:28:56;19.75;;;11.95;;
26181;SDS011;13927;51.534;11.866;2023-03-01T03:31:22;20.52;;;12.43;;
26181;SDS011;13927;51.534;11.866;2023-03-01T03:33:48;21.55;;;12.35;;
26181;SDS011;13927;51.534;11.866;2023-03-01T03:36:17;18.85;;;11.88;;
26181;SDS011;13927;51.534;11.866;2023-03-01T03:38:45;22.73;;;13.07;;
26181;SDS011;13927;51.534;11.866;2023-03-01T03:41:12;21.38;;;12.55;;
26181;SDS011;13927;51.534;11.866;2023-03-01T03:43:38;22.42;;;12.32;;
26181;SDS011;13927;51.534;11.866;2023-03-01T03:46:05;21.63;;;12.02;;
26181;SDS011;13927;51.534;11.866;2023-03-01T03:48:42;19.77;;;11.60;;
26181;SDS011;13927;51.534;11.866;2023-03-01T03:51:10;16.40;;;11.25;;
26181;SDS011;13927;51.534;11.866;2023-03-01T03:53:41;17.25;;;10.63;;
26181;SDS011;13927;51.534;11.866;2023-03-01T03:56:08;19.85;;;11.38;;
26181;SDS011;13927;51.534;11.866;2023-03-01T03:58:35;17.17;;;12.10;;
26181;SDS011;13927;51.534;11.866;2023-03-01T04:01:01;21.15;;;12.23;;
26181;SDS011;13927;51.534;11.866;2023-03-01T04:03:29;19.27;;;11.00;;
26181;SDS011;13927;51.534;11.866;2023-03-01T04:05:59;21.33;;;11.52;;
26181;SDS011;13927;51.534;11.866;2023-03-01T04:08:34;17.30;;;11.25;;
26181;SDS011;13927;51.534;11.866;2023-03-01T04:11:01;20.60;;;11.57;;
26181;SDS011;13927;51.534;11.866;2023-03-01T04:13:49;19.05;;;11.77;;
26181;SDS011;13927;51.534;11.866;2023-03-01T04:16:16;19.20;;;12.15;;
26181;SDS011;13927;51.534;11.866;2023-03-01T04:18:42;19.50;;;11.68;;
26181;SDS011;13927;51.534;11.866;2023-03-01T04:21:10;23.33;;;12.95;;
26181;SDS011;13927;51.534;11.866;2023-03-01T04:23:36;21.52;;;11.73;;
26181;SDS011;13927;51.534;11.866;2023-03-01T04:26:08;21.25;;;11.48;;
26181;SDS011;13927;51.534;11.866;2023-03-01T04:28:35;21.08;;;11.05;;
26181;SDS011;13927;51.534;11.866;2023-03-01T04:31:06;18.20;;;11.73;;
26181;SDS011;13927;51.534;11.866;2023-03-01T04:33:39;18.23;;;11.82;;
26181;SDS011;13927;51.534;11.866;2023-03-01T04:36:15;16.95;;;10.35;;
26181;SDS011;13927;51.534;11.866;2023-03-01T04:38:42;18.80;;;10.38;;
26181;SDS011;13927;51.534;11.866;2023-03-01T04:41:12;18.08;;;10.98;;
26181;SDS011;13927;51.534;11.866;2023-03-01T04:43:40;19.67;;;11.68;;
26181;SDS011;13927;51.534;11.866;2023-03-01T04:46:07;17.17;;;11.20;;
26181;SDS011;13927;51.534;11.866;2023-03-01T04:48:37;20.63;;;12.13;;
26181;SDS011;13927;51.534;11.866;2023-03-01T04:51:05;22.02;;;12.10;;
26181;SDS011;13927;51.534;11.866;2023-03-01T04:53:32;21.10;;;11.77;;
26181;SDS011;13927;51.534;11.866;2023-03-01T04:56:01;22.42;;;11.93;;
26181;SDS011;13927;51.534;11.866;2023-03-01T04:58:28;24.98;;;11.38;;
26181;SDS011;13927;51.534;11.866;2023-03-01T05:00:55;22.10;;;12.43;;
26181;SDS011;13927;51.534;11.866;2023-03-01T05:03:21;23.58;;;14.07;;
26181;SDS011;13927;51.534;11.866;2023-03-01T05:05:48;23.55;;;14.15;;
26181;SDS011;13927;51.534;11.866;2023-03-01T05:08:16;20.00;;;13.07;;
26181;SDS011;13927;51.534;11.866;2023-03-01T05:10:51;21.15;;;12.20;;
26181;SDS011;13927;51.534;11.866;2023-03-01T05:13:18;19.73;;;11.40;;
26181;SDS011;13927;51.534;11.866;2023-03-01T05:15:55;17.63;;;11.55;;
26181;SDS011;13927;51.534;11.866;2023-03-01T05:18:24;21.55;;;13.00;;
26181;SDS011;13927;51.534;11.866;2023-03-01T05:21:12;23.85;;;13.10;;
26181;SDS011;13927;51.534;11.866;2023-03-01T05:23:40;26.40;;;13.98;;
26181;SDS011;13927;51.534;11.866;2023-03-01T05:26:09;26.10;;;15.25;;
26181;SDS011;13927;51.534;11.866;2023-03-01T05:28:35;31.58;;;16.45;;
26181;SDS011;13927;51.534;11.866;2023-03-01T05:31:01;30.92;;;17.30;;
26181;SDS011;13927;51.534;11.866;2023-03-01T05:33:27;31.85;;;17.73;;
26181;SDS011;13927;51.534;11.866;2023-03-01T05:35:53;33.70;;;17.98;;
26181;SDS011;13927;51.534;11.866;2023-03-01T05:38:19;29.05;;;16.35;;
26181;SDS011;13927;51.534;11.866;2023-03-01T05:40:46;33.03;;;17.27;;
26181;SDS011;13927;51.534;11.866;2023-03-01T05:43:14;27.05;;;15.88;;
26181;SDS011;13927;51.534;11.866;2023-03-01T05:45:41;29.45;;;17.25;;
26181;SDS011;13927;51.534;11.866;2023-03-01T05:48:08;29.65;;;17.08;;
26181;SDS011;13927;51.534;11.866;2023-03-01T05:50:35;30.73;;;16.58;;
26181;SDS011;13927;51.534;11.866;2023-03-01T05:53:13;35.58;;;17.30;;
26181;SDS011;13927;51.534;11.866;2023-03-01T05:55:44;23.43;;;14.53;;
26181;SDS011;13927;51.534;11.866;2023-03-01T05:58:13;28.42;;;15.20;;
26181;SDS011;13927;51.534;11.866;2023-03-01T06:00:47;29.23;;;15.65;;
26181;SDS011;13927;51.534;11.866;2023-03-01T06:03:14;28.92;;;17.48;;
26181;SDS011;13927;51.534;11.866;2023-03-01T06:05:43;34.72;;;20.15;;
26181;SDS011;13927;51.534;11.866;2023-03-01T06:08:10;32.70;;;21.00;;
26181;SDS011;13927;51.534;11.866;2023-03-01T06:10:36;33.22;;;18.27;;
26181;SDS011;13927;51.534;11.866;2023-03-01T06:13:07;33.15;;;16.45;;
26181;SDS011;13927;51.534;11.866;2023-03-01T06:15:32;43.50;;;21.98;;
26181;SDS011;13927;51.534;11.866;2023-03-01T06:17:58;32.40;;;18.08;;
26181;SDS011;13927;51.534;11.866;2023-03-01T06:20:25;36.35;;;17.83;;
26181;SDS011;13927;51.534;11.866;2023-03-01T06:22:53;33.63;;;17.83;;
26181;SDS011;13927;51.534;11.866;2023-03-01T06:25:20;26.42;;;15.52;;
26181;SDS011;13927;51.534;11.866;2023-03-01T06:27:48;34.70;;;18.10;;
26181;SDS011;13927;51.534;11.866;2023-03-01T06:30:16;33.38;;;18.50;;
26181;SDS011;13927;51.534;11.866;2023-03-01T06:32:43;36.17;;;18.20;;
26181;SDS011;13927;51.534;11.866;2023-03-01T06:35:10;29.27;;;18.08;;
26181;SDS011;13927;51.534;11.866;2023-03-01T06:37:38;34.97;;;19.10;;
26181;SDS011;13927;51.534;11.866;2023-03-01T06:40:05;34.45;;;18.25;;
26181;SDS011;13927;51.534;11.866;2023-03-01T06:42:34;37.05;;;20.17;;
26181;SDS011;13927;51.534;11.866;2023-03-01T06:45:02;36.72;;;19.88;;
26181;SDS011;13927;51.534;11.866;2023-03-01T06:47:29;35.88;;;19.10;;
26181;SDS011;13927;51.534;11.866;2023-03-01T06:49:55;35.03;;;19.15;;
26181;SDS011;13927;51.534;11.866;2023-03-01T06:52:21;29.65;;;17.27;;
26181;SDS011;13927;51.534;11.866;2023-03-01T06:54:47;27.58;;;16.17;;
26181;SDS011;13927;51.534;11.866;2023-03-01T06:57:13;37.25;;;17.75;;
26181;SDS011;13927;51.534;11.866;2023-03-01T06:59:39;28.85;;;17.60;;
26181;SDS011;13927;51.534;11.866;2023-03-01T07:02:04;26.83;;;16.40;;
26181;SDS011;13927;51.534;11.866;2023-03-01T07:04:30;35.25;;;21.58;;
26181;SDS011;13927;51.534;11.866;2023-03-01T07:06:56;26.50;;;17.38;;
26181;SDS011;13927;51.534;11.866;2023-03-01T07:09:22;28.33;;;17.27;;
26181;SDS011;13927;51.534;11.866;2023-03-01T07:11:50;30.17;;;17.75;;
26181;SDS011;13927;51.534;11.866;2023-03-01T07:14:16;28.23;;;17.25;;
26181;SDS011;13927;51.534;11.866;2023-03-01T07:16:41;28.08;;;16.05;;
26181;SDS011;13927;51.534;11.866;2023-03-01T07:19:07;27.58;;;16.58;;
26181;SDS011;13927;51.534;11.866;2023-03-01T07:21:34;26.45;;;16.27;;
26181;SDS011;13927;51.534;11.866;2023-03-01T07:24:05;27.70;;;15.65;;
26181;SDS011;13927;51.534;11.866;2023-03-01T07:26:32;22.42;;;15.13;;
26181;SDS011;13927;51.534;11.866;2023-03-01T07:29:02;25.00;;;16.40;;
26181;SDS011;13927;51.534;11.866;2023-03-01T07:31:30;27.35;;;17.92;;
26181;SDS011;13927;51.534;11.866;2023-03-01T07:33:56;27.08;;;16.38;;
26181;SDS011;13927;51.534;11.866;2023-03-01T07:36:22;27.38;;;16.58;;
26181;SDS011;13927;51.534;11.866;2023-03-01T07:38:49;28.73;;;17.02;;
26181;SDS011;13927;51.534;11.866;2023-03-01T07:41:16;33.83;;;17.27;;
26181;SDS011;13927;51.534;11.866;2023-03-01T07:43:41;32.33;;;17.83;;
26181;SDS011;13927;51.534;11.866;2023-03-01T07:46:07;25.10;;;16.23;;
26181;SDS011;13927;51.534;11.866;2023-03-01T07:48:33;29.58;;;17.05;;
26181;SDS011;13927;51.534;11.866;2023-03-01T07:51:00;24.52;;;16.27;;
26181;SDS011;13927;51.534;11.866;2023-03-01T07:53:29;26.33;;;17.20;;
26181;SDS011;13927;51.534;11.866;2023-03-01T07:56:11;26.63;;;16.67;;
26181;SDS011;13927;51.534;11.866;2023-03-01T08:01:08;86.93;;;42.38;;
26181;SDS011;13927;51.534;11.866;2023-03-01T08:03:36;47.50;;;25.10;;
26181;SDS011;13927;51.534;11.866;2023-03-01T08:06:03;76.90;;;46.65;;
26181;SDS011;13927;51.534;11.866;2023-03-01T08:08:31;36.85;;;24.42;;
26181;SDS011;13927;51.534;11.866;2023-03-01T08:10:59;56.00;;;39.80;;
26181;SDS011;13927;51.534;11.866;2023-03-01T08:13:26;33.88;;;24.48;;
26181;SDS011;13927;51.534;11.866;2023-03-01T08:15:53;106.78;;;64.40;;
26181;SDS011;13927;51.534;11.866;2023-03-01T08:18:19;60.53;;;38.20;;
26181;SDS011;13927;51.534;11.866;2023-03-01T08:20:45;34.17;;;26.02;;
26181;SDS011;13927;51.534;11.866;2023-03-01T08:23:11;29.80;;;17.13;;
26181;SDS011;13927;51.534;11.866;2023-03-01T08:25:38;23.95;;;15.77;;
26181;SDS011;13927;51.534;11.866;2023-03-01T08:28:05;24.50;;;18.10;;
26181;SDS011;13927;51.534;11.866;2023-03-01T08:30:31;28.33;;;18.20;;
26181;SDS011;13927;51.534;11.866;2023-03-01T08:32:59;25.67;;;15.23;;
26181;SDS011;13927;51.534;11.866;2023-03-01T08:35:25;22.00;;;14.88;;
26181;SDS011;13927;51.534;11.866;2023-03-01T08:37:51;22.65;;;13.93;;
26181;SDS011;13927;51.534;11.866;2023-03-01T08:40:16;23.08;;;14.20;;
26181;SDS011;13927;51.534;11.866;2023-03-01T08:42:42;20.00;;;14.50;;
26181;SDS011;13927;51.534;11.866;2023-03-01T08:45:09;24.70;;;15.02;;
26181;SDS011;13927;51.534;11.866;2023-03-01T08:47:36;22.25;;;14.15;;
26181;SDS011;13927;51.534;11.866;2023-03-01T08:50:02;19.05;;;13.27;;
26181;SDS011;13927;51.534;11.866;2023-03-01T08:52:31;20.88;;;13.68;;
26181;SDS011;13927;51.534;11.866;2023-03-01T08:54:59;18.70;;;13.85;;
26181;SDS011;13927;51.534;11.866;2023-03-01T08:57:26;18.27;;;12.80;;
26181;SDS011;13927;51.534;11.866;2023-03-01T08:59:52;17.00;;;12.38;;
26181;SDS011;13927;51.534;11.866;2023-03-01T09:02:20;18.02;;;12.95;;
26181;SDS011;13927;51.534;11.866;2023-03-01T09:04:47;20.27;;;12.63;;
26181;SDS011;13927;51.534;11.866;2023-03-01T09:07:13;16.77;;;12.20;;
26181;SDS011;13927;51.534;11.866;2023-03-01T09:09:38;16.33;;;11.43;;
26181;SDS011;13927;51.534;11.866;2023-03-01T09:12:04;16.35;;;12.40;;
26181;SDS011;13927;51.534;11.866;2023-03-01T09:14:30;15.60;;;11.35;;
26181;SDS011;13927;51.534;11.866;2023-03-01T09:16:56;16.08;;;11.70;;
26181;SDS011;13927;51.534;11.866;2023-03-01T09:19:22;16.50;;;11.25;;
26181;SDS011;13927;51.534;11.866;2023-03-01T09:21:47;13.68;;;10.38;;
26181;SDS011;13927;51.534;11.866;2023-03-01T09:26:48;17.65;;;10.82;;
26181;SDS011;13927;51.534;11.866;2023-03-01T09:29:15;16.10;;;9.77;;
26181;SDS011;13927;51.534;11.866;2023-03-01T09:31:42;13.57;;;9.05;;
26181;SDS011;13927;51.534;11.866;2023-03-01T09:34:08;14.55;;;9.57;;
26181;SDS011;13927;51.534;11.866;2023-03-01T09:36:35;15.30;;;10.43;;
26181;SDS011;13927;51.534;11.866;2023-03-01T09:39:02;12.75;;;8.77;;
26181;SDS011;13927;51.534;11.866;2023-03-01T09:41:42;11.93;;;9.30;;
26181;SDS011;13927;51.534;11.866;2023-03-01T09:44:34;15.30;;;9.05;;
26181;SDS011;13927;51.534;11.866;2023-03-01T09:47:11;12.38;;;8.88;;
26181;SDS011;13927;51.534;11.866;2023-03-01T09:49:43;13.82;;;8.95;;
26181;SDS011;13927;51.534;11.866;2023-03-01T10:02:15;12.73;;;8.27;;
26181;SDS011;13927;51.534;11.866;2023-03-01T10:04:49;13.18;;;8.80;;
26181;SDS011;13927;51.534;11.866;2023-03-01T10:07:54;11.88;;;8.25;;
26181;SDS011;13927;51.534;11.866;2023-03-01T10:10:27;11.82;;;8.02;;
26181;SDS011;13927;51.534;11.866;2023-03-01T10:13:13;12.88;;;8.90;;
26181;SDS011;13927;51.534;11.866;2023-03-01T10:16:20;13.00;;;8.40;;
26181;SDS011;13927;51.534;11.866;2023-03-01T10:19:03;14.85;;;9.73;;
26181;SDS011;13927;51.534;11.866;2023-03-01T10:21:31;13.93;;;8.75;;
26181;SDS011;13927;51.534;11.866;2023-03-01T10:24:13;12.77;;;9.55;;
26181;SDS011;13927;51.534;11.866;2023-03-01T10:26:57;14.50;;;9.75;;
26181;SDS011;13927;51.534;11.866;2023-03-01T10:29:58;13.85;;;9.35;;
26181;SDS011;13927;51.534;11.866;2023-03-01T10:32:38;14.70;;;9.60;;
26181;SDS011;13927;51.534;11.866;2023-03-01T10:35:24;13.27;;;9.43;;
26181;SDS011;13927;51.534;11.866;2023-03-01T10:38:06;16.30;;;10.60;;
26181;SDS011;13927;51.534;11.866;2023-03-01T10:40:55;12.40;;;8.88;;
26181;SDS011;13927;51.534;11.866;2023-03-01T10:51:49;14.38;;;10.00;;
26181;SDS011;13927;51.534;11.866;2023-03-01T10:54:25;12.35;;;9.15;;
26181;SDS011;13927;51.534;11.866;2023-03-01T10:56:55;13.77;;;9.48;;
26181;SDS011;13927;51.534;11.866;2023-03-01T10:59:27;14.18;;;10.18;;
26181;SDS011;13927;51.534;11.866;2023-03-01T11:04:39;16.58;;;10.50;;
26181;SDS011;13927;51.534;11.866;2023-03-01T11:07:07;12.98;;;8.93;;
26181;SDS011;13927;51.534;11.866;2023-03-01T11:09:33;10.80;;;9.18;;
26181;SDS011;13927;51.534;11.866;2023-03-01T11:12:08;13.82;;;9.77;;
26181;SDS011;13927;51.534;11.866;2023-03-01T11:14:46;14.18;;;9.55;;
26181;SDS011;13927;51.534;11.866;2023-03-01T11:17:15;11.45;;;9.00;;
26181;SDS011;13927;51.534;11.866;2023-03-01T11:22:45;13.00;;;8.73;;
26181;SDS011;13927;51.534;11.866;2023-03-01T11:25:17;11.65;;;8.55;;
26181;SDS011;13927;51.534;11.866;2023-03-01T11:27:45;10.30;;;7.88;;
26181;SDS011;13927;51.534;11.866;2023-03-01T11:30:27;15.32;;;9.70;;
26181;SDS011;13927;51.534;11.866;2023-03-01T11:35:34;11.00;;;8.50;;
26181;SDS011;13927;51.534;11.866;2023-03-01T11:38:26;12.43;;;8.77;;
26181;SDS011;13927;51.534;11.866;2023-03-01T11:40:59;12.80;;;9.10;;
26181;SDS011;13927;51.534;11.866;2023-03-01T11:51:46;9.30;;;7.32;;
26181;SDS011;13927;51.534;11.866;2023-03-01T12:09:41;10.75;;;6.72;;
26181;SDS011;13927;51.534;11.866;2023-03-01T12:14:37;12.07;;;6.97;;
26181;SDS011;13927;51.534;11.866;2023-03-01T12:17:30;9.23;;;6.27;;
26181;SDS011;13927;51.534;11.866;2023-03-01T12:20:35;10.02;;;7.43;;
26181;SDS011;13927;51.534;11.866;2023-03-01T12:23:39;10.65;;;6.85;;
26181;SDS011;13927;51.534;11.866;2023-03-01T12:39:23;11.88;;;7.20;;
26181;SDS011;13927;51.534;11.866;2023-03-01T12:45:47;9.30;;;6.53;;
26181;SDS011;13927;51.534;11.866;2023-03-01T12:51:38;10.55;;;6.15;;
26181;SDS011;13927;51.534;11.866;2023-03-01T12:54:14;7.50;;;5.60;;
26181;SDS011;13927;51.534;11.866;2023-03-01T12:56:48;11.90;;;7.20;;
26181;SDS011;13927;51.534;11.866;2023-03-01T13:07:28;8.00;;;5.80;;
26181;SDS011;13927;51.534;11.866;2023-03-01T13:10:20;7.80;;;5.93;;
26181;SDS011;13927;51.534;11.866;2023-03-01T13:13:07;6.63;;;5.28;;
26181;SDS011;13927;51.534;11.866;2023-03-01T13:15:39;6.78;;;4.80;;
26181;SDS011;13927;51.534;11.866;2023-03-01T13:23:11;8.48;;;4.78;;
26181;SDS011;13927;51.534;11.866;2023-03-01T13:30:59;7.10;;;4.35;;
26181;SDS011;13927;51.534;11.866;2023-03-01T13:35:53;11.82;;;5.40;;
26181;SDS011;13927;51.534;11.866;2023-03-01T13:47:31;7.03;;;4.85;;
26181;SDS011;13927;51.534;11.866;2023-03-01T13:52:39;6.53;;;4.93;;
26181;SDS011;13927;51.534;11.866;2023-03-01T13:58:23;7.45;;;4.88;;
26181;SDS011;13927;51.534;11.866;2023-03-01T14:00:55;7.78;;;5.18;;
26181;SDS011;13927;51.534;11.866;2023-03-01T14:03:39;8.23;;;5.13;;
26181;SDS011;13927;51.534;11.866;2023-03-01T14:06:08;8.23;;;5.55;;
26181;SDS011;13927;51.534;11.866;2023-03-01T14:08:43;6.68;;;5.10;;
26181;SDS011;13927;51.534;11.866;2023-03-01T14:14:00;7.18;;;4.35;;
26181;SDS011;13927;51.534;11.866;2023-03-01T14:19:55;7.60;;;4.72;;
26181;SDS011;13927;51.534;11.866;2023-03-01T14:22:33;6.60;;;4.95;;
26181;SDS011;13927;51.534;11.866;2023-03-01T14:25:02;7.45;;;5.03;;
26181;SDS011;13927;51.534;11.866;2023-03-01T14:27:41;9.35;;;5.22;;
26181;SDS011;13927;51.534;11.866;2023-03-01T14:33:04;6.65;;;4.68;;
26181;SDS011;13927;51.534;11.866;2023-03-01T14:35:53;7.25;;;4.70;;
26181;SDS011;13927;51.534;11.866;2023-03-01T14:38:31;6.93;;;4.72;;
26181;SDS011;13927;51.534;11.866;2023-03-01T14:41:16;6.35;;;4.60;;
26181;SDS011;13927;51.534;11.866;2023-03-01T14:49:02;6.30;;;4.43;;
26181;SDS011;13927;51.534;11.866;2023-03-01T14:51:30;5.75;;;4.50;;
26181;SDS011;13927;51.534;11.866;2023-03-01T14:54:01;7.43;;;4.97;;
26181;SDS011;13927;51.534;11.866;2023-03-01T14:56:27;6.63;;;4.03;;
26181;SDS011;13927;51.534;11.866;2023-03-01T14:59:09;5.32;;;3.95;;
26181;SDS011;13927;51.534;11.866;2023-03-01T15:01:36;7.78;;;4.75;;
26181;SDS011;13927;51.534;11.866;2023-03-01T15:04:02;6.25;;;3.92;;
26181;SDS011;13927;51.534;11.866;2023-03-01T15:06:28;5.65;;;4.22;;
26181;SDS011;13927;51.534;11.866;2023-03-01T15:08:54;7.10;;;4.53;;
26181;SDS011;13927;51.534;11.866;2023-03-01T15:11:31;6.40;;;4.40;;
26181;SDS011;13927;51.534;11.866;2023-03-01T15:13:58;6.32;;;3.50;;
26181;SDS011;13927;51.534;11.866;2023-03-01T15:16:25;7.22;;;4.47;;
26181;SDS011;13927;51.534;11.866;2023-03-01T15:18:57;8.77;;;4.33;;
26181;SDS011;13927;51.534;11.866;2023-03-01T15:21:36;7.18;;;4.80;;
26181;SDS011;13927;51.534;11.866;2023-03-01T15:26:55;5.97;;;4.30;;
26181;SDS011;13927;51.534;11.866;2023-03-01T15:29:32;12.77;;;5.38;;
26181;SDS011;13927;51.534;11.866;2023-03-01T15:32:06;7.95;;;4.85;;
26181;SDS011;13927;51.534;11.866;2023-03-01T15:34:55;7.78;;;4.88;;
26181;SDS011;13927;51.534;11.866;2023-03-01T15:45:27;6.03;;;4.78;;
26181;SDS011;13927;51.534;11.866;2023-03-01T15:48:00;8.18;;;4.93;;
26181;SDS011;13927;51.534;11.866;2023-03-01T15:52:58;6.20;;;5.05;;
26181;SDS011;13927;51.534;11.866;2023-03-01T15:55:31;7.05;;;5.30;;
26181;SDS011;13927;51.534;11.866;2023-03-01T15:58:05;6.68;;;5.30;;
26181;SDS011;13927;51.534;11.866;2023-03-01T16:00:38;8.07;;;5.60;;
26181;SDS011;13927;51.534;11.866;2023-03-01T16:03:04;9.20;;;5.80;;
26181;SDS011;13927;51.534;11.866;2023-03-01T16:05:33;7.07;;;5.43;;
26181;SDS011;13927;51.534;11.866;2023-03-01T16:08:01;8.48;;;5.38;;
26181;SDS011;13927;51.534;11.866;2023-03-01T16:10:27;8.88;;;6.18;;
26181;SDS011;13927;51.534;11.866;2023-03-01T16:12:54;10.52;;;5.95;;
26181;SDS011;13927;51.534;11.866;2023-03-01T16:15:21;10.23;;;6.10;;
26181;SDS011;13927;51.534;11.866;2023-03-01T16:17:52;8.23;;;5.43;;
26181;SDS011;13927;51.534;11.866;2023-03-01T16:20:18;8.65;;;5.45;;
26181;SDS011;13927;51.534;11.866;2023-03-01T16:22:45;7.55;;;4.97;;
26181;SDS011;13927;51.534;11.866;2023-03-01T16:25:12;6.53;;;5.25;;
26181;SDS011;13927;51.534;11.866;2023-03-01T16:27:44;7.35;;;5.40;;
26181;SDS011;13927;51.534;11.866;2023-03-01T16:30:13;7.15;;;6.20;;
26181;SDS011;13927;51.534;11.866;2023-03-01T16:32:42;7.53;;;5.07;;
26181;SDS011;13927;51.534;11.866;2023-03-01T16:35:11;8.60;;;5.45;;
26181;SDS011;13927;51.534;11.866;2023-03-01T16:37:40;8.48;;;5.95;;
26181;SDS011;13927;51.534;11.866;2023-03-01T16:40:06;8.68;;;6.22;;
26181;SDS011;13927;51.534;11.866;2023-03-01T16:42:53;11.50;;;6.97;;
26181;SDS011;13927;51.534;11.866;2023-03-01T16:45:24;9.85;;;6.22;;
26181;SDS011;13927;51.534;11.866;2023-03-01T16:47:53;9.65;;;6.68;;
26181;SDS011;13927;51.534;11.866;2023-03-01T16:50:19;7.18;;;5.40;;
26181;SDS011;13927;51.534;11.866;2023-03-01T16:52:45;10.48;;;5.80;;
26181;SDS011;13927;51.534;11.866;2023-03-01T16:55:11;10.32;;;6.05;;
26181;SDS011;13927;51.534;11.866;2023-03-01T16:57:37;15.10;;;8.35;;
26181;SDS011;13927;51.534;11.866;2023-03-01T17:00:04;13.23;;;8.50;;
26181;SDS011;13927;51.534;11.866;2023-03-01T17:02:34;12.43;;;8.80;;
26181;SDS011;13927;51.534;11.866;2023-03-01T17:05:00;14.30;;;7.88;;
26181;SDS011;13927;51.534;11.866;2023-03-01T17:07:28;10.55;;;6.72;;